Terminal Aerodrome Forecast
Issued by NWS St Louis, MO

Home | Current Version | Previous Version | Text Only | Print | Product List | Glossary On
Versions: 1 2 3 4 5 6 7 8 9 10 11 12 13 14 15 16 17 18 19 20 21 22 23 24 25 26 27 28
000
FTUS43 KLSX 261400 AAA
TAFSTL
TAF AMD
KSTL 261444Z 2615/2718 35012G20KT 3SM -SN SCT008 OVC012
      TEMPO 2615/2616 1 1/2SM -SN
     FM261800 34014G20KT 6SM -SHSN OVC015
     FM262200 33012KT P6SM BKN020
     FM270600 33008KT P6SM SCT020=

USA.gov is the U.S. government's official web portal to all federal, state and local government web resources and services.